»·PEaware :: AAL322 KLAS-KPHX

AAL322 :: KLAS-KPHX

FLIGHT INFORMATION

Flight Status: Arrived
Operator:
American Airlines
More flights by this operator :: More flights under this callsign
Pilot: Jack B. (5846)
Aircraft: AIRBUS A320
(A320)
More flights by this aircraft type
Origin: KLAS McCarran Intl
United States
Destination: KPHX Phoenix Sky Harbor Intl
United States
More flights between these airports :: More routes between these airports
Route: +COWBY8 COWBY TENTS BRUSR1
File this flight plan on PilotEdge
Remarks:
Altitude:
(Current/Filed)
290ft
Speed:
(Current/Filed)
320kts
Departed: 09-May-20 07:58 PM
Arrived: 09-May-20 08:46 PM
Distance/Time
Traveled:
222nm/0:48
Distance/Time
To Go:
Arrived

Flight Plot

Page will automatically refresh every two minutes.


Map Options




Map Legend


Flown Route
Filed Route
Departure Airport
Arrival Airport
Navaid (VOR, NDB)
Fix

Horizontal Profiles

Position Reports

Time Latitude Longitude Heading Altitude Ground
Speed
09-May-20 19:49 36.080575 -115.140584 134 2149ft 0kts
09-May-20 19:50 36.080575 -115.140584 134 2149ft 0kts
09-May-20 19:51 36.080906 -115.141639 131 2149ft 0kts
09-May-20 19:52 36.080883 -115.141661 162 2149ft 4kts
09-May-20 19:53 36.078903 -115.140354 143 2149ft 13kts
09-May-20 19:54 36.078229 -115.134668 91 2149ft 25kts
09-May-20 19:55 36.078253 -115.127096 90 2149ft 19kts
09-May-20 19:56 36.077741 -115.121976 131 2149ft 15kts
09-May-20 19:57 36.076390 -115.125931 269 2149ft 72kts
09-May-20 19:58 36.076406 -115.176659 268 3330ft 174kts
09-May-20 19:59 36.073637 -115.244157 239 4863ft 224kts
09-May-20 20:00 36.014073 -115.281136 202 6654ft 272kts
09-May-20 20:01 35.939354 -115.287800 166 8105ft 287kts
09-May-20 20:02 35.866974 -115.247628 120 10029ft 305kts
09-May-20 20:03 35.838260 -115.143139 108 11869ft 343kts
09-May-20 20:04 35.826646 -115.024399 85 13625ft 381kts
09-May-20 20:05 35.838193 -114.889174 85 15377ft 414kts
09-May-20 20:06 35.851551 -114.744523 85 17104ft 436kts
09-May-20 20:07 35.864909 -114.594185 85 18819ft 448kts
09-May-20 20:08 35.878320 -114.440873 85 20537ft 450kts
09-May-20 20:09 35.863788 -114.306507 110 22159ft 440kts
09-May-20 20:10 35.833138 -114.159585 105 23892ft 444kts
09-May-20 20:11 35.803797 -114.011638 105 25625ft 446kts
09-May-20 20:12 35.774534 -113.864048 105 27035ft 452kts
09-May-20 20:13 35.743408 -113.707440 106 27022ft 489kts
09-May-20 20:14 35.710143 -113.542762 106 27022ft 498kts
09-May-20 20:15 35.677332 -113.379034 105 27021ft 498kts
09-May-20 20:16 35.644862 -113.213703 105 27070ft 498kts
09-May-20 20:17 35.612206 -113.048480 105 27210ft 499kts
09-May-20 20:18 35.579075 -112.882079 105 27226ft 512kts
09-May-20 20:19 35.547715 -112.723682 105 27231ft 515kts
09-May-20 20:20 35.512987 -112.553162 108 27236ft 514kts
09-May-20 20:21 35.416806 -112.442087 169 27240ft 490kts
09-May-20 20:22 35.284898 -112.411402 174 27238ft 480kts
09-May-20 20:23 35.153381 -112.384644 173 27231ft 481kts
09-May-20 20:24 35.021710 -112.356064 173 27220ft 480kts
09-May-20 20:25 34.891211 -112.327850 172 27164ft 475kts
09-May-20 20:26 34.761767 -112.299568 172 26692ft 476kts
09-May-20 20:27 34.632308 -112.271120 172 25245ft 463kts
09-May-20 20:28 34.511756 -112.244656 172 23179ft 412kts
09-May-20 20:29 34.407330 -112.220282 170 21194ft 380kts
09-May-20 20:30 34.304224 -112.193573 170 18730ft 379kts
09-May-20 20:31 34.203501 -112.167546 168 16350ft 355kts
09-May-20 20:32 34.110502 -112.143559 167 14044ft 333kts
09-May-20 20:33 34.018275 -112.145192 184 11808ft 340kts
09-May-20 20:35 33.926285 -112.155222 185 10612ft 313kts
09-May-20 20:36 33.843921 -112.170945 191 10086ft 284kts
09-May-20 20:37 33.768030 -112.184981 186 8947ft 279kts
09-May-20 20:38 33.692000 -112.192380 186 7648ft 269kts
09-May-20 20:39 33.620206 -112.198764 186 6421ft 245kts
09-May-20 20:40 33.558540 -112.203415 180 5579ft 209kts
09-May-20 20:41 33.500754 -112.190842 169 3816ft 211kts
09-May-20 20:42 33.454125 -112.156299 125 2504ft 191kts
09-May-20 20:43 33.440914 -112.102884 87 2413ft 170kts
09-May-20 20:44 33.440808 -112.046958 89 1510ft 166kts
09-May-20 20:45 33.440851 -112.001966 89 1142ft 62kts
09-May-20 20:46 33.438453 -111.995778 180 1142ft 11kts
09-May-20 20:47 33.437104 -111.996267 269 1142ft 0kts

Navigation Log

Ident Type
Flight plan parsing failed, navigation log unavailable